Cisco Butte, California Weather observations

Data are for observation ending at time listed.
 Day   Time    Ave.   Ave.  Ave.  Vector   Max.   Stn.    Total    Solar   Ave.   Snow 
  of    of     Air    Rel.  Wind   Wind    Wind   Baro.  Precip.   Rad.    Soil   Depth
Year   Day     Temp.  Hum.  Speed  Dir.    Gust   Pres.                    Temp.       
2015   (PST)    F      %     mph   deg.    mph     mb.     in.     W/m2     F      in. 
---------------------------------------------------------------------------------------  
 144   10:50   57.2    53    6.8   279     14.9   823.0    0.00     727    999.0  159.4
 144   11:00   57.6    53    9.0   282     13.8   823.0    0.00     470    999.0  159.4
 144   11:10   57.7    53    7.4   280     14.5   823.0    0.00     617    999.0  159.4
 144   11:20   57.3    52    9.3   284     13.1   823.0    0.00     305    999.0  159.4
 144   11:30   55.9    52   10.2   280     15.3   822.0    0.00     471    999.0  159.4
 144   11:40   57.7    50    8.9   274     13.8   822.0    0.00     723    999.0  159.4
 144   11:50   57.5    52    9.6   280     15.9   822.0    0.00     399    999.0  159.4
 144   12:00   57.6    55   13.6   280     19.6   822.0    0.00     739    999.0  159.4
 144   12:10   56.9    61   11.7   282     16.3   822.0    0.00     291    999.0  159.4
 144   12:20   55.8    66   10.4   282     17.4   822.0    0.00     208    999.0  159.4
 144   12:30   54.6    71   11.4   284     17.7   822.0    0.00     153    999.0  159.4
 144   12:40   54.8    69   10.5   281     17.5   822.0    0.00     218    999.0  159.4
 144   12:50   56.2    64   13.2   277     19.0   822.0    0.00     667    999.0  159.4
 144   13:00   57.7    64   11.7   275     18.7   822.0    0.00     559    999.0  159.4
 144   13:10   57.1    65   11.2   279     20.5   822.0    0.00     200    999.0  159.4
 144   13:20   56.3    68    8.2   278     14.5   822.0    0.00     198    999.0  159.4
 144   13:30   56.4    69   12.9   280     21.2   822.0    0.00     301    999.0  159.4
 144   13:40   56.3    70   14.2   279     20.8   822.0    0.00     621    999.0  159.4
 144   13:50   57.2    67   12.9   279     18.8   822.0    0.00     479    999.0  159.4
 144   14:00   58.0    66   14.5   281     20.7   822.0    0.00     691    999.0  159.4
 144   14:10   56.7    70   17.0   281     22.4   822.0    0.00     454    999.0  159.4
 144   14:20   56.2    71   13.7   280     20.7   822.0    0.00     540    999.0  159.4
 144   14:30   56.2    70   12.3   275     17.6   822.0    0.00     267    999.0  159.4
 144   14:40   54.6    74   12.0   281     17.6   822.0    0.00     104    999.0  159.3
 144   14:50   53.5    76   12.8   280     18.4   822.0    0.00      96    999.0  159.5
 144   15:00   53.9    74   13.2   280     19.6   822.0    0.00     184    999.0  159.4
 144   15:10   55.7    68   11.4   278     17.1   822.0    0.00     234    999.0  159.4
 144   15:20   53.8    75    8.4   268     14.6   822.0    0.00      42    999.0  159.0
 144   15:30   53.1    77    8.1   271     14.4   822.0    0.00      36    999.0  158.5
 144   15:40   53.0    77   10.1   278     14.8   822.0    0.00      48    999.0  158.9
 144   15:50   52.4    79   12.7   279     17.0   822.0    0.00      70    999.0  159.3
 144   16:00   50.8    86   11.1   279     17.8   822.0    0.00      88    999.0  158.9
 144   16:10   50.5    87   11.1   278     15.4   822.0    0.00     110    999.0  158.7
 144   16:20   51.6    84    9.8   273     12.9   822.0    0.00     149    999.0  159.3
 144   16:30   51.9    83   10.7   271     16.0   822.0    0.00     108    999.0  159.3
 144   16:40   51.7    84    8.6   280     14.2   822.0    0.00     100    999.0  159.3
 144   16:50   51.7    84    7.3   283     10.4   822.0    0.00      78    999.0  159.4
 144   17:00   51.8    85    8.6   281     11.6   822.0    0.00     108    999.0  159.4
 144   17:10   52.0    84    8.6   276     14.2   822.0    0.00      93    999.0  159.4
 144   17:20   51.6    84    7.0   273      9.8   822.0    0.00      39    999.0  159.5
 144   17:30   51.4    84    6.8   271     10.8   822.0    0.00      52    999.0  159.5
 144   17:40   51.5    83    5.7   268      9.1   822.0    0.00      51    999.0  159.5
 144   17:50   51.9    82    5.8   277      9.3   822.0    0.00      96    999.0  159.5
 144   18:00   52.6    81    6.2   271      9.0   822.0    0.00      93    999.0  159.5
 144   18:10   52.5    80    5.8   278      8.7   822.0    0.00      44    999.0  159.5
 144   18:20   52.0    81    5.8   270      8.2   822.0    0.00      49    999.0  159.5
 144   18:30   51.6    81    5.6   279      9.0   822.0    0.00      27    999.0  159.5
 144   18:40   51.2    81    5.9   277      7.8   822.0    0.00      14    999.0  159.5
 144   18:50   50.8    83    8.8   277     11.3   822.0    0.00       9    999.0  159.4
 144   19:00   50.3    84    8.3   277     10.9   822.0    0.00       5    999.0  158.9
 144   19:10   49.7    85    6.7   280     10.8   822.0    0.00       4    999.0  155.7
 144   19:20   49.6    84    3.9   290      7.7   822.0    0.00       2    999.0  155.5
 144   19:30   49.4    85    2.3   269      4.5   822.0    0.00       1    999.0  155.3
 144   19:40   49.0    86    3.1   285      5.0   822.0    0.00       0    999.0  156.0
 144   19:50   49.1    86    3.0   279      4.9   822.0    0.00       0    999.0  156.0
 144   20:00   48.3    88    2.0   275      3.4   822.0    0.00       0    999.0  157.3
 144   20:10   48.4    88    0.3    86      0.9   822.0    0.00       0    999.0  158.1
 144   20:20   48.7    87    1.5    78      2.6   822.0    0.00       0    999.0  159.3
 144   20:30   48.9    87    1.6    79      2.5   822.0    0.00       0    999.0  158.8
 144   20:40   48.6    87    0.9    93      2.1   822.0    0.00       0    999.0  159.3
 144   20:50   48.9    86    0.7    69      1.7   822.0    0.00       0    999.0  159.2
 144   21:00   49.2    84    0.5    54      1.3   823.0    0.00       0    999.0  159.2
 144   21:10   49.0    85    0.3    96      1.4   822.0    0.00       0    999.0  159.2
 144   21:20   48.4    86    0.6   101      1.2   823.0    0.00       0    999.0  127.4
 144   21:30   48.4    87    0.6    80      1.8   823.0    0.00       0    999.0  159.2
 144   21:40   48.5    86    2.5    77      4.1   823.0    0.00       0    999.0  159.4
 144   21:50   48.2    87    3.3    69      4.5   823.0    0.00       0    999.0  159.5
 144   22:00   47.7    88    1.9    82      3.6   823.0    0.00       0    999.0  159.5
 144   22:10   47.6    89    1.0    55      1.8   823.0    0.00       0    999.0  159.5
 144   22:20   47.8    88    1.9   112      3.4   822.0    0.00       0    999.0  159.5
 144   22:30   47.3    90    2.5   107      3.7   822.0    0.00       0    999.0  159.5
 144   22:40   47.1    90    3.9   108      6.2   822.0    0.00       0    999.0  159.5
 144   22:50   47.5    89    3.1    97      5.2   822.0    0.00       0    999.0  159.5
 144   23:00   47.7    88    1.8    86      2.8   822.0    0.00       0    999.0  159.5
 144   23:10   47.6    88    1.4    94      3.9   822.0    0.00       0    999.0  159.5
 144   23:20   47.0    89    3.1    95      4.6   822.0    0.00       0    999.0  159.5
 144   23:30   47.0    89    3.2   117      4.8   822.0    0.00       0    999.0  159.5
 144   23:40   47.1    89    3.4   112      4.7   822.0    0.00       0    999.0  159.5
 144   23:50   47.3    88    3.6   108      5.1   822.0    0.00       0    999.0  159.5
 145    0:00   47.2    88    3.2   106      4.5   822.0    0.00       0    999.0  159.5
 145    0:10   47.1    88    2.4    96      3.9   822.0    0.00       0    999.0  159.5
 145    0:20   47.7    86    2.2    82      3.7   822.0    0.00       0    999.0  159.5
 145    0:30   48.3    83    3.4    79      5.1   822.0    0.00       0    999.0  159.4
 145    0:40   48.5    82    3.0    70      3.9   822.0    0.00       0    999.0  159.2
 145    0:50   49.2    77    2.2    66      3.3   822.0    0.00       0    999.0  158.9
 145    1:00   48.0    84    3.1   104      5.0   822.0    0.00       0    999.0  159.3
 145    1:10   48.1    84    3.1    93      4.4   822.0    0.00       0    999.0  159.4
 145    1:20   48.2    84    2.7    97      4.2   822.0    0.00       0    999.0  159.4
 145    1:30   48.0    84    2.8    79      4.9   822.0    0.00       0    999.0  159.3
 145    1:40   47.1    86    4.4    97      8.3   822.0    0.00       0    999.0  159.2
 145    1:50   46.7    86    3.3   102      5.6   822.0    0.00       0    999.0  159.3
 145    2:00   46.8    86    3.4    86      5.8   822.0    0.00       0    999.0  159.4
 145    2:10   46.5    88    2.8    92      4.6   822.0    0.00       0    999.0  159.5
 145    2:20   46.9    85    2.9    76      4.7   822.0    0.00       0    999.0  159.5
 145    2:30   47.4    83    2.5    65      3.9   822.0    0.00       0    999.0  159.3
 145    2:40   47.4    83    1.2    86      2.3   822.0    0.00       0    999.0  159.3
 145    2:50   47.1    84    0.4   260      2.1   822.0    0.00       0    999.0  159.5
 145    3:00   47.2    82    1.3   295      2.1   822.0    0.00       0    999.0  159.4
 145    3:10   47.2    83    0.2   358      1.0   822.0    0.00       0    999.0  159.5
 145    3:20   46.9    86    0.5   299      1.5   822.0    0.00       0    999.0  159.5
 145    3:30   46.7    88    1.9   297      3.2   822.0    0.00       0    999.0  159.4
 145    3:40   46.6    88    1.8   291      2.9   822.0    0.00       0    999.0  158.6
 145    3:50   46.4    89    0.3   293      1.8   821.0    0.00       0    999.0  159.5
 145    4:00   46.3    89    0.1   281      0.6   821.0    0.00       0    999.0  159.5
 145    4:10   46.2    89    0.0     0      0.0   821.0    0.00       0    999.0  159.5
 145    4:20   46.3    88    0.8   293      1.7   821.0    0.00       0    999.0  159.4
 145    4:30   46.7    86    1.1   301      1.7   821.0    0.00       0    999.0  159.2
 145    4:40   46.9    86    0.5   316      1.1   821.0    0.00       1    999.0  159.3
 145    4:50   46.7    86    0.4    42      1.2   821.0    0.00       2    999.0  159.3
 145    5:00   45.9    88    1.8    88      3.3   822.0    0.00       5    999.0  159.4
 145    5:10   44.3    91    2.1    86      3.6   822.0    0.00      11    999.0  159.2
 145    5:20   44.4    91    3.1    88      4.5   822.0    0.00      15    999.0  159.4
 145    5:30   44.3    91    3.0    76      4.5   822.0    0.00      37    999.0  159.5
 145    5:40   44.7    90    3.9    97      5.5   822.0    0.00      57    999.0  159.5
 145    5:50   45.3    88    3.3   101      6.1   822.0    0.00      75    999.0  159.2
 145    6:00   45.9    85    3.1   104      5.2   822.0    0.00      89    999.0  159.3
 145    6:10   46.6    83    3.3   106      4.8   822.0    0.00     107    999.0  159.0
 145    6:20   47.3    81    3.4    98      5.0   822.0    0.00     127    999.0  159.3
 145    6:30   48.1    79    2.6   112      5.0   822.0    0.00     146    999.0  159.3
 145    6:40   49.1    77    2.3   137      3.9   822.0    0.00     167    999.0  159.3
 145    6:50   50.3    75    1.1   152      2.5   822.0    0.00     191    999.0  159.4
 145    7:00   51.9    73    1.3   128      3.2   822.0    0.00     217    999.0  159.4
 145    7:10   52.4    72    1.6   180      3.8   822.0    0.00     240    999.0  159.4
 145    7:20   55.7    64    0.2   266      1.4   822.0    0.00     264    999.0  159.3
 145    7:30   56.2    63    2.2   295      3.7   822.0    0.00     287    999.0  159.4
 145    7:40   56.0    63    1.5   266      2.8   822.0    0.00     310    999.0  159.4
 145    7:50   57.1    60    1.4   129      5.0   822.0    0.00     332    999.0  159.4
 145    8:00   55.3    64    1.7    68      5.4   822.0    0.00     355    999.0  159.3
 145    8:10   57.0    61    1.8   296      4.6   822.0    0.00     377    999.0  159.4
 145    8:20   56.8    62    2.9   291      6.4   822.0    0.00     399    999.0  159.4
 145    8:30   56.9    64    5.5   279      9.1   822.0    0.00     423    999.0  159.3
 145    8:40   57.7    62    5.9   274     10.8   822.0    0.00     465    999.0  159.3
 145    8:50   56.6    66    7.1   286     12.1   822.0    0.00     400    999.0  159.4
 145    9:00   54.6    70    8.2   274     11.5   822.0    0.00     118    999.0  159.4
 145    9:10   53.5    72    8.9   273     12.0   822.0    0.00     120    999.0  159.5
 145    9:20   53.3    74    9.2   277     13.6   822.0    0.00      88    999.0  159.5
 145    9:30   52.7    77    9.9   280     13.4   822.0    0.00      99    999.0  159.4
 145    9:40   53.8    76   10.7   282     14.2   822.0    0.00     379    999.0  159.3
 145    9:50   55.4    73   11.4   284     15.4   822.0    0.00     547    999.0  159.4
 145   10:00   55.7    73   11.2   276     15.3   822.0    0.00     479    999.0  159.4
 145   10:10   56.9    71   10.2   279     15.3   822.0    0.00     605    999.0  159.4
 145   10:20   56.6    70   12.3   279     16.6   822.0    0.00     403    999.0  159.4
 145   10:30   55.5    71   11.4   282     17.8   822.0    0.00     484    999.0  159.4
 145   10:40   56.9    69   13.4   279     17.0   822.0    0.00     596    999.0  159.4

Return to Cisco Butte graphs page.


Western Regional Climate Center,wrcc@dri.edu